My Meet Scores
Maria Morant, Patti Dunne's School Of Gymnastics - MyMeetScores.com
Top100 | Top Teams | Upcoming Meets | Completed Meets | Latest | Add Scores | Help| Support | Bookmark and Share

Maria Morant, Patti Dunne's School Of Gymnastics
Personal Bests
LevelVault BarsBeamFloorAA
39.7009.275 9.4509.20036.700
48.7009.625 9.6509.02536.425
59.7509.200 9.5259.67537.775
Scores on America's Top 100as of 10.15.2019
Year Level Vault Bars Beam Floor AA
2018 59.750
2019 59.675, 9.650

Click here to view our
exclusive Top 100 Collection

Click here to view our
exclusive Top 100 Collection
Meet Scores
Date Meet Team Session Level Division Vault Bars Beam Floor AA
2019-02-15 Presidential Classic Patti Dunne's School Of Gymnastics B12 5 L5_Grp4 9.225 3 9.200 2 8.750 10 9.675 1 36.850 3
2019-02-08 Team Challenge 2019 Patti Dunne's School Of Gymnastics B4 5 Sr B 9.475 6 9.175 5 9.475 2 9.650 1 37.775 2
2019-02-01 State Level 4&5 Patti Dunne's School Of Gymnastics 5 5 13 yrs 9.250 5T 9.000 7 9.000 8T 9.300 6T 36.550 6
2019-01-26 Manhattan Classic Patti Dunne's School Of Gymnastics 5CP 5 Senior 9.125 4 9.150 5 8.825 6 9.150 3 36.250 5
2019-01-18 DGS Northeast Invite Patti Dunne's School Of Gymnastics 5A 5 Jr B 9.100 3 8.300 5 8.950 1 8.750 5 35.100 3
2019-01-10 Little Boston Invitational Patti Dunne's School Of Gymnastics D04 5 SR 8.800 10 8.650 6T 8.750 4 9.000 7T 35.200 3
2018-12-14 Shen's New England Classic Patti Dunne's School Of Gymnastics 01 5 JR B 9.125 3 8.825 4 8.875 3 8.850 7 35.675 2
2018-12-08 American Gymnastics Invitational Patti Dunne's School Of Gymnastics 6 5 Jr A 9.350 1 8.425 2 9.350 2T 9.075 3 36.200 2
2018-11-17 2018 Connecticut Judge's Cup Patti Dunne's School Of Gymnastics 5 5 12+ yrs. 8.650 21T 8.150 14T 8.325 30T 9.350 4T 34.475 15
2018-02-16 Chelsea Piers Winter Challenge Patti Dunne's School Of Gymnastics C-8 5 Sr 9.250 2T 8.925 5 8.850 7 9.000 9T 36.025 4
2018-02-09 Team Challenge 2018 Patti Dunne's School Of Gymnastics 07B 5 Sr B 9.175 11 9.100 4 9.525 3 8.650 13 36.450 3
2018-02-03 Level 4 & 5 States Patti Dunne's School Of Gymnastics 6 5 12 A 9.300 5T 8.425 15T 9.250 1 9.100 7T 36.075 5
2018-01-26 2018 American Invitational Patti Dunne's School Of Gymnastics 7B 5 Middle 9.750 1 7.200 7 8.425 3 9.575 1 34.950 2
2018-01-19 Kinetic Kids Invitational Patti Dunne's School Of Gymnastics 7 5 Older 8.750 6 7.750 9 8.800 3T 8.600 5 33.900 6
2017-11-30 Rhode Island Invitational Patti Dunne's School Of Gymnastics SU1 5 Junior 8.750 3T 8.075 1 8.100 6T 8.800 6 33.725 4
2017-02-04 2017 Connecticut Level 4 & 5 State Meets Patti Dunne's School Of Gymnastics 3 4 11 A 8.500 10T 9.000 4 8.700 7* 9.025 3T 35.225 3T
2017-01-27 24th Annual American Invitational Patti Dunne's School Of Gymnastics 5B 4 Senior 8.150 16T 9.625 2 9.650 1 9.000 2 36.425 1
2017-01-13 Northeast Invitational Patti Dunne's School Of Gymnastics 5 4 11 yrs. 8.700 7 9.050 2 8.850 6 9.000 4 35.600 5
2016-12-02 Rhode Island Invitational Patti Dunne's School Of Gymnastics SF2 4 Senior 8.450 2T 8.350 7T 9.250 2 8.875 5 34.925 4
2016-11-05 2016 Connecticut Judges Cup Patti Dunne's School Of Gymnastics 5 4 AllAges 8.450 13T 8.800 15T 9.300 7 8.250 20T 34.800 13
2016-04-02 2016 Connecticut Level 6 States & Level 3 State Cup Patti Dunne's School Of Gymnastics 7 3 N/A 9.450 3 8.800 14 8.700 10T 8.750 39T 35.700 8T
2016-02-13 Chelsea Piers Winter Challenge Patti Dunne's School Of Gymnastics F5 3 JR B 0.000 0.000 0.000 0.000 0.000 0
2016-01-15 DGS Invitational Patti Dunne's School Of Gymnastics A11 3 10-11 yrs. 9.700 1 8.750 3 9.450 1 8.800 2T 36.700 2
2015-12-04 Rhode Island Invitational Patti Dunne's School Of Gymnastics WS3 3 Senior 9.225 3 9.275 1 8.850 3 8.600 6 35.950 4
2015-11-21 Pilgrim Invitational Patti Dunne's School Of Gymnastics 6 3 Senior 9.200 3T 8.600 2 8.900 7T 9.200 3T 35.900 2T
2015-02-13 Team Challege 2015 Shoreline Gymnastics B1 3 Senior 8.650 13T 9.025 8 9.000 12T 7.600 24 34.275 16
2014-12-12 Rhode Island Invitational Shoreline Gymnastics SF1 3 Junior 9.075 1 7.900 4T 8.100 6 7.750 9 32.825 5
Get your scores on
a t-shirt, pin, or hoodie

www.lazysuits.com